createdAt,value
2022-12-22T00:00:32.566Z,4.47
2022-12-22T00:03:32.629Z,5.15
2022-12-22T00:06:28.191Z,4.80
2022-12-22T00:09:18.965Z,4.45
2022-12-22T00:12:09.937Z,4.13
2022-12-22T00:15:02.066Z,3.33
2022-12-22T00:17:52.771Z,3.75
2022-12-22T00:20:43.902Z,3.88
2022-12-22T00:23:34.549Z,3.90
2022-12-22T00:26:27.205Z,3.88
2022-12-22T00:29:17.833Z,3.67
2022-12-22T00:32:09.012Z,3.30
2022-12-22T00:35:01.630Z,4.25
2022-12-22T00:37:55.608Z,3.58
2022-12-22T00:40:47.702Z,3.75
2022-12-22T00:43:38.357Z,3.70
2022-12-22T00:46:32.078Z,3.33
2022-12-22T00:49:23.104Z,3.83
2022-12-22T00:52:13.702Z,3.80
2022-12-22T00:55:04.149Z,4.47
2022-12-22T00:57:54.769Z,4.70
2022-12-22T01:00:45.652Z,3.85
2022-12-22T01:03:37.024Z,3.97
2022-12-22T01:06:28.827Z,3.50
2022-12-22T01:09:20.006Z,3.60
2022-12-22T01:12:10.564Z,3.97
2022-12-22T01:15:01.038Z,3.70
2022-12-22T01:17:51.424Z,3.83
2022-12-22T01:20:42.031Z,3.70
2022-12-22T01:23:33.108Z,3.47
2022-12-22T01:26:28.173Z,3.42
2022-12-22T01:29:18.722Z,3.67
2022-12-22T01:32:09.179Z,2.58
2022-12-22T01:35:00.499Z,3.38
2022-12-22T01:37:51.349Z,3.50
2022-12-22T01:40:44.495Z,3.60
2022-12-22T01:43:46.187Z,2.63
2022-12-22T01:46:47.261Z,3.53
2022-12-22T01:49:43.369Z,3.20
2022-12-22T01:52:38.017Z,2.97
2022-12-22T01:55:32.736Z,3.05
2022-12-22T01:58:26.903Z,2.97
2022-12-22T02:04:09.170Z,2.80
2022-12-22T02:07:01.687Z,3.10
2022-12-22T02:09:58.402Z,2.88
2022-12-22T02:13:10.766Z,2.80
2022-12-22T02:16:12.099Z,2.40
2022-12-22T02:19:13.139Z,2.90
2022-12-22T02:22:15.751Z,3.05
2022-12-22T02:25:12.777Z,2.35
2022-12-22T02:28:05.690Z,2.55
2022-12-22T02:30:57.223Z,2.60
2022-12-22T02:33:48.385Z,2.17
2022-12-22T02:36:44.810Z,2.70
2022-12-22T02:39:51.196Z,2.53
2022-12-22T02:43:00.044Z,2.25
2022-12-22T02:46:16.803Z,2.35
2022-12-22T02:49:15.597Z,2.47
2022-12-22T02:52:12.402Z,2.25
2022-12-22T02:55:04.223Z,2.15
2022-12-22T02:57:55.260Z,2.33
2022-12-22T03:00:46.555Z,2.22
2022-12-22T03:03:37.639Z,2.00
2022-12-22T03:06:28.375Z,1.50
2022-12-22T03:09:19.034Z,2.00
2022-12-22T03:12:10.308Z,1.40
2022-12-22T03:15:00.852Z,1.40
2022-12-22T03:17:51.782Z,1.42
2022-12-22T03:20:42.530Z,2.08
2022-12-22T03:23:33.385Z,1.70
2022-12-22T03:26:05.824Z,1.50
2022-12-22T03:28:37.895Z,1.40
2022-12-22T03:31:09.984Z,1.50
2022-12-22T03:33:42.016Z,1.30
2022-12-22T03:36:14.091Z,1.40
2022-12-22T03:38:46.071Z,1.20
2022-12-22T03:41:37.117Z,1.00
2022-12-22T03:44:28.026Z,1.25
2022-12-22T03:47:00.118Z,1.25
2022-12-22T03:49:32.401Z,1.63
2022-12-22T03:52:04.595Z,1.30
2022-12-22T03:54:36.636Z,1.67
2022-12-22T03:57:08.943Z,1.30
2022-12-22T03:59:40.889Z,1.75
2022-12-22T04:02:13.008Z,1.52
2022-12-22T04:04:45.099Z,1.63
2022-12-22T04:07:17.572Z,1.58
2022-12-22T04:10:08.341Z,1.75
2022-12-22T04:12:55.609Z,1.83
2022-12-22T04:15:30.270Z,1.80
2022-12-22T04:18:02.441Z,1.83
2022-12-22T04:20:34.805Z,1.50
2022-12-22T04:23:07.014Z,1.98
2022-12-22T04:25:39.201Z,1.80
2022-12-22T04:28:11.945Z,1.98
2022-12-22T04:31:10.347Z,2.10
2022-12-22T04:33:42.578Z,1.98
2022-12-22T04:36:14.832Z,2.30
2022-12-22T04:38:47.066Z,2.42
2022-12-22T04:41:19.177Z,2.10
2022-12-22T04:43:51.425Z,2.15
2022-12-22T04:46:23.519Z,1.90
2022-12-22T04:48:59.941Z,2.45
2022-12-22T04:51:32.661Z,2.40
2022-12-22T04:54:04.697Z,2.72
2022-12-22T04:56:36.769Z,2.40
2022-12-22T04:59:09.367Z,2.33
2022-12-22T05:01:41.555Z,2.20
2022-12-22T05:04:17.374Z,5.53
2022-12-22T05:06:52.193Z,14.07
2022-12-22T05:09:24.454Z,4.70
2022-12-22T05:11:56.761Z,3.00
2022-12-22T05:14:28.819Z,2.90
2022-12-22T05:17:00.934Z,2.88
2022-12-22T05:19:33.013Z,2.78
2022-12-22T05:22:05.075Z,3.28
2022-12-22T05:24:37.123Z,4.00
2022-12-22T05:27:11.355Z,7.60
2022-12-22T05:29:43.478Z,8.52
2022-12-22T05:32:15.521Z,6.25
2022-12-22T05:34:47.609Z,6.35
2022-12-22T05:37:20.024Z,4.45
2022-12-22T05:39:52.080Z,4.13
2022-12-22T05:42:36.398Z,3.53
2022-12-22T05:45:12.508Z,2.83
2022-12-22T05:47:47.167Z,2.53
2022-12-22T05:50:24.939Z,2.90
2022-12-22T05:53:05.659Z,2.65
2022-12-22T05:55:37.958Z,2.60
2022-12-22T05:58:09.979Z,2.75
2022-12-22T06:00:42.107Z,3.13
2022-12-22T06:03:14.373Z,2.40
2022-12-22T06:05:50.076Z,2.85
2022-12-22T06:08:23.240Z,2.10
2022-12-22T06:10:57.392Z,3.05
2022-12-22T06:13:29.904Z,1.95
2022-12-22T06:16:02.223Z,2.60
2022-12-22T06:18:34.342Z,2.78
2022-12-22T06:21:06.743Z,2.40
2022-12-22T06:27:50.455Z,2.92
2022-12-22T06:30:29.182Z,2.63
2022-12-22T06:33:05.404Z,1.90
2022-12-22T06:35:37.588Z,2.50
2022-12-22T06:38:09.613Z,4.05
2022-12-22T06:40:41.733Z,3.28
2022-12-22T06:43:13.821Z,4.10
2022-12-22T06:45:46.203Z,3.10
2022-12-22T06:48:19.177Z,2.40
2022-12-22T06:50:51.242Z,3.22
2022-12-22T06:53:24.072Z,3.00
2022-12-22T06:55:56.038Z,2.38
2022-12-22T06:58:28.063Z,2.13
2022-12-22T07:01:00.057Z,2.22
2022-12-22T07:03:32.142Z,4.50
2022-12-22T07:06:04.436Z,1.60
2022-12-22T07:08:36.456Z,1.40
2022-12-22T07:11:08.427Z,2.00
2022-12-22T07:13:41.454Z,2.47
2022-12-22T07:16:13.569Z,1.48
2022-12-22T07:18:45.585Z,1.23
2022-12-22T07:21:17.645Z,1.40
2022-12-22T07:23:49.661Z,1.60
2022-12-22T07:26:21.735Z,1.15
2022-12-22T07:28:53.760Z,1.40
2022-12-22T07:31:25.864Z,1.50
2022-12-22T07:33:58.177Z,1.30
2022-12-22T07:36:30.183Z,1.42
2022-12-22T07:39:02.725Z,1.50
2022-12-22T07:41:53.349Z,1.73
2022-12-22T07:44:25.562Z,1.65
2022-12-22T07:46:57.606Z,1.55
2022-12-22T07:49:48.180Z,1.67
2022-12-22T07:52:20.165Z,1.40
2022-12-22T07:54:52.175Z,1.60
2022-12-22T07:57:26.402Z,5.50
2022-12-22T07:59:58.464Z,3.60
2022-12-22T08:02:36.870Z,5.88
2022-12-22T08:05:11.107Z,4.68
2022-12-22T08:07:43.365Z,2.13
2022-12-22T08:10:17.744Z,2.78
2022-12-22T08:12:49.748Z,2.03
2022-12-22T08:15:21.757Z,2.00
2022-12-22T08:17:53.909Z,2.13
2022-12-22T08:20:26.103Z,2.05
2022-12-22T08:22:58.309Z,2.40
2022-12-22T08:25:32.110Z,1.55
2022-12-22T08:28:04.282Z,1.55
2022-12-22T08:30:36.459Z,1.60
2022-12-22T08:33:08.643Z,1.63
2022-12-22T08:35:40.840Z,1.38
2022-12-22T08:38:14.195Z,1.38
2022-12-22T08:40:47.678Z,1.75
2022-12-22T08:43:21.949Z,1.25
2022-12-22T08:45:53.976Z,1.25
2022-12-22T08:48:25.975Z,1.00
2022-12-22T08:50:57.984Z,1.30
2022-12-22T08:54:03.111Z,1.30
2022-12-22T08:56:21.944Z,1.15
2022-12-22T08:58:54.506Z,0.80
2022-12-22T09:01:26.708Z,1.40
2022-12-22T20:10:24.972Z,2.63
2022-12-22T20:13:02.018Z,2.65
2022-12-22T20:15:37.557Z,2.50
2022-12-22T20:18:20.913Z,2.75
2022-12-22T20:21:01.362Z,1.90
2022-12-22T20:23:37.766Z,1.95
2022-12-22T20:26:15.959Z,1.60
2022-12-22T20:28:49.891Z,1.83
2022-12-22T20:31:24.280Z,1.70
2022-12-22T20:33:56.477Z,1.63
2022-12-22T20:36:31.957Z,1.63
2022-12-22T20:39:12.281Z,1.80
2022-12-22T20:41:50.528Z,1.70
2022-12-22T20:44:24.935Z,1.73
2022-12-22T20:46:57.121Z,2.17
2022-12-22T20:49:29.237Z,3.55
2022-12-22T20:52:01.303Z,4.15
2022-12-22T20:54:33.503Z,4.88
2022-12-22T20:57:06.188Z,5.00
2022-12-22T20:59:38.271Z,4.23
2022-12-22T21:02:23.575Z,7.03
2022-12-22T21:04:56.292Z,5.47
2022-12-22T21:07:29.012Z,5.85
2022-12-22T21:10:01.338Z,1.60
2022-12-22T21:12:33.563Z,2.50
2022-12-22T21:15:06.064Z,5.38
2022-12-22T21:17:42.059Z,3.53
2022-12-22T21:20:27.175Z,8.38
2022-12-22T21:22:59.445Z,15.65
2022-12-22T21:25:31.777Z,7.35
2022-12-22T21:28:07.709Z,4.25
2022-12-22T21:30:39.800Z,5.75
2022-12-22T21:33:11.890Z,8.57
2022-12-22T21:35:44.174Z,4.15
2022-12-22T21:38:21.983Z,6.43
2022-12-22T21:40:54.574Z,3.65
